Time;durP1;ratioP1;P1;durP2;ratioP2;P2;SDS_P1;SDS_P2;PMS_P1;PMS_P2;Temp;Humidity;BMP_temperature;BMP_pressure;BME280_temperature;BME280_humidity;BME280_pressure;Samples;Min_cycle;Max_cycle;Signal;HPM_P1;HPM_P2
2022/12/04 00:00:07;;;;;;;43.60;22.98;;;1.20;99.90;;;;;;5013506;28;20294;-57
2022/12/04 00:02:33;;;;;;;41.50;21.10;;;1.20;99.90;;;;;;5008182;28;20568;-57
2022/12/04 00:04:59;;;;;;;37.88;21.17;;;1.30;99.90;;;;;;5030337;28;20121;-55
2022/12/04 00:07:24;;;;;;;39.40;20.58;;;1.30;99.90;;;;;;5007606;28;20091;-56
2022/12/04 00:09:50;;;;;;;39.70;19.90;;;1.30;99.90;;;;;;5010563;28;20048;-56
2022/12/04 00:12:16;;;;;;;43.97;20.20;;;1.30;99.90;;;;;;5038108;28;20508;-55
2022/12/04 00:14:41;;;;;;;35.50;18.88;;;1.30;99.90;;;;;;5029715;28;20377;-56
2022/12/04 00:17:07;;;;;;;37.25;19.98;;;1.30;99.90;;;;;;5010536;28;20047;-57
2022/12/04 00:19:33;;;;;;;38.45;20.58;;;1.30;99.90;;;;;;5024269;28;20052;-56
2022/12/04 00:21:58;;;;;;;36.10;19.35;;;1.20;99.90;;;;;;5022524;28;20045;-57
2022/12/04 00:24:24;;;;;;;35.80;19.42;;;1.30;99.90;;;;;;5029896;28;20035;-57
2022/12/04 00:26:50;;;;;;;37.50;19.48;;;1.30;99.90;;;;;;5022304;28;20099;-57
2022/12/04 00:29:16;;;;;;;32.47;18.05;;;1.20;99.90;;;;;;5022079;28;20399;-57
2022/12/04 00:31:41;;;;;;;36.13;18.40;;;1.20;99.90;;;;;;5016383;28;20073;-56
2022/12/04 00:34:07;;;;;;;36.38;18.63;;;1.20;99.90;;;;;;5015739;28;20053;-57
2022/12/04 00:36:33;;;;;;;33.00;18.08;;;1.20;99.90;;;;;;5021456;28;20128;-57
2022/12/04 00:38:59;;;;;;;33.10;18.25;;;1.20;99.90;;;;;;5021275;28;20416;-57
2022/12/04 00:41:29;;;;;;;34.53;18.27;;;1.20;99.90;;;;;;5021965;28;20488;-56
2022/12/04 00:43:54;;;;;;;33.33;19.90;;;1.30;99.90;;;;;;5024552;28;20107;-56
2022/12/04 00:46:21;;;;;;;37.13;18.63;;;1.20;99.90;;;;;;4999866;28;20459;-56
2022/12/04 00:48:46;;;;;;;37.15;17.63;;;1.30;99.90;;;;;;5025978;28;20124;-54
2022/12/04 00:51:15;;;;;;;33.97;18.45;;;1.20;99.90;;;;;;5027321;28;20124;-55
2022/12/04 00:53:41;;;;;;;33.67;17.27;;;1.30;99.90;;;;;;5027407;28;20029;-57
2022/12/04 00:56:13;;;;;;;37.25;18.40;;;1.30;99.90;;;;;;5012672;28;20041;-57
2022/12/04 00:58:39;;;;;;;33.47;17.20;;;1.20;99.90;;;;;;5029855;28;20040;-57
2022/12/04 01:01:14;;;;;;;35.03;18.38;;;1.30;99.90;;;;;;5009708;28;20048;-57
2022/12/04 01:03:41;;;;;;;36.05;17.40;;;1.30;99.90;;;;;;5010807;28;20037;-56
2022/12/04 01:06:15;;;;;;;32.97;17.13;;;1.30;99.90;;;;;;5026557;28;20107;-56
2022/12/04 01:08:41;;;;;;;34.17;18.38;;;1.30;99.90;;;;;;5031373;28;20112;-54
2022/12/04 01:11:07;;;;;;;33.20;17.42;;;1.30;99.90;;;;;;5018778;28;20112;-56
2022/12/04 01:13:33;;;;;;;33.45;18.95;;;1.30;99.90;;;;;;5035858;28;20041;-56
2022/12/04 01:15:58;;;;;;;33.22;17.58;;;1.30;99.90;;;;;;5013838;28;20029;-56
2022/12/04 01:18:24;;;;;;;33.40;17.15;;;1.30;99.90;;;;;;5015372;28;20454;-57
2022/12/04 01:20:51;;;;;;;34.75;17.23;;;1.30;99.90;;;;;;5025428;28;20033;-57
2022/12/04 01:23:17;;;;;;;32.75;17.45;;;1.30;99.90;;;;;;5018457;28;20805;-56
2022/12/04 01:25:55;;;;;;;39.45;19.02;;;1.30;99.90;;;;;;5018718;28;20519;-57
2022/12/04 01:28:21;;;;;;;31.02;16.48;;;1.30;99.90;;;;;;5019396;28;20041;-56
2022/12/04 01:31:09;;;;;;;35.00;18.10;;;1.00;99.90;;;;;;5016050;28;20045;-57
2022/12/04 01:33:36;;;;;;;35.50;17.23;;;1.30;99.90;;;;;;5022743;28;20525;-57
2022/12/04 01:36:05;;;;;;;34.53;18.33;;;1.30;99.90;;;;;;5003973;28;20357;-57
2022/12/04 01:38:31;;;;;;;35.92;19.52;;;1.40;99.90;;;;;;5027303;28;20041;-57
2022/12/04 01:40:57;;;;;;;39.25;19.13;;;1.40;99.90;;;;;;5026575;28;20124;-57
2022/12/04 01:43:24;;;;;;;34.35;18.05;;;1.40;99.90;;;;;;5025746;28;20033;-57
2022/12/04 01:45:58;;;;;;;36.17;18.25;;;1.40;99.90;;;;;;5024058;28;20057;-58
2022/12/04 01:48:31;;;;;;;34.13;18.45;;;1.30;99.90;;;;;;5005541;28;20543;-57
2022/12/04 01:51:21;;;;;;;34.50;18.30;;;1.30;99.90;;;;;;5018569;28;20153;-57
2022/12/04 01:53:51;;;;;;;35.25;18.83;;;1.30;99.90;;;;;;5017111;28;20044;-57
2022/12/04 01:56:19;;;;;;;35.55;18.52;;;1.20;99.90;;;;;;5030971;28;20029;-57
2022/12/04 01:58:49;;;;;;;37.22;19.52;;;1.20;99.90;;;;;;5034986;28;20112;-57
2022/12/04 02:01:15;;;;;;;32.88;16.80;;;1.20;99.90;;;;;;5028181;28;20033;-56
2022/12/04 02:03:41;;;;;;;40.78;19.60;;;1.20;99.90;;;;;;4994495;28;20115;-57
2022/12/04 02:06:07;;;;;;;39.50;20.65;;;1.10;99.90;;;;;;5033795;28;20175;-57
2022/12/04 02:08:34;;;;;;;35.63;18.67;;;1.10;99.90;;;;;;5020976;28;20293;-56
2022/12/04 02:11:16;;;;;;;34.55;18.50;;;1.10;99.90;;;;;;5037061;28;20036;-57
2022/12/04 02:13:48;;;;;;;40.80;20.23;;;1.00;99.90;;;;;;5002612;28;20045;-56
2022/12/04 02:16:39;;;;;;;33.90;18.15;;;1.00;99.90;;;;;;5036330;28;20037;-57
2022/12/04 02:19:26;;;;;;;36.67;20.08;;;1.10;99.90;;;;;;5028075;28;20046;-55
2022/12/04 02:21:54;;;;;;;39.05;18.83;;;0.90;99.90;;;;;;5029769;28;20249;-57
2022/12/04 02:24:41;;;;;;;40.92;21.05;;;0.90;99.90;;;;;;5033133;28;20051;-55
2022/12/04 02:27:25;;;;;;;41.10;20.52;;;0.90;99.90;;;;;;5014400;28;20125;-57
2022/12/04 02:29:56;;;;;;;;;;;0.90;99.90;;;;;;5026817;28;20046;-57
2022/12/04 02:32:37;;;;;;;40.63;19.75;;;1.20;99.90;;;;;;4991678;28;20283;-56
2022/12/04 02:35:15;;;;;;;37.85;18.58;;;0.90;99.90;;;;;;5026202;28;20049;-56
2022/12/04 02:37:52;;;;;;;41.67;20.67;;;0.90;99.90;;;;;;5021840;28;20596;-57
2022/12/04 02:40:25;;;;;;;42.78;22.52;;;0.80;99.90;;;;;;5023150;28;20446;-56
2022/12/04 02:42:58;;;;;;;41.20;21.40;;;0.90;99.90;;;;;;5020495;28;20042;-57
2022/12/04 02:45:29;;;;;;;37.33;19.50;;;0.80;99.90;;;;;;5022359;28;20076;-57
2022/12/04 02:47:57;;;;;;;40.15;20.00;;;0.90;99.90;;;;;;5017635;28;20163;-55
2022/12/04 02:50:24;;;;;;;42.65;21.23;;;0.90;99.90;;;;;;5024333;28;20030;-54
2022/12/04 02:53:21;;;;;;;39.20;20.02;;;0.90;99.90;;;;;;5027591;28;20037;-55
2022/12/04 02:56:01;;;;;;;43.80;21.23;;;0.80;99.90;;;;;;5008054;28;20061;-55
2022/12/04 02:58:35;;;;;;;46.78;21.95;;;0.90;99.90;;;;;;5030523;28;20492;-56
2022/12/04 03:01:18;;;;;;;42.45;21.20;;;0.90;99.90;;;;;;5029604;28;20478;-56
2022/12/04 03:03:53;;;;;;;38.75;21.85;;;0.90;99.90;;;;;;5024829;28;20043;-57
2022/12/04 03:06:22;;;;;;;38.80;19.65;;;0.90;99.90;;;;;;5028264;28;20104;-57
2022/12/04 03:09:00;;;;;;;39.35;21.00;;;0.80;99.90;;;;;;5030316;28;20451;-57
2022/12/04 03:11:29;;;;;;;44.38;21.27;;;0.90;99.90;;;;;;5028383;28;20041;-57
2022/12/04 03:14:02;;;;;;;40.25;20.33;;;0.90;99.90;;;;;;5025052;28;20044;-55
2022/12/04 03:16:36;;;;;;;40.10;21.33;;;0.90;99.90;;;;;;5029441;28;20431;-56
2022/12/04 03:19:08;;;;;;;;;;;0.90;99.90;;;;;;5027252;28;20512;-54
2022/12/04 03:21:37;;;;;;;41.70;20.30;;;0.90;99.90;;;;;;5014020;28;19921;-57
2022/12/04 03:24:15;;;;;;;44.17;22.80;;;0.90;99.90;;;;;;5017738;28;20115;-57
2022/12/04 03:26:45;;;;;;;40.67;20.65;;;0.90;99.90;;;;;;5022768;28;20041;-57
2022/12/04 03:29:33;;;;;;;44.00;21.70;;;0.90;99.90;;;;;;4991651;28;20053;-56
2022/12/04 03:32:09;;;;;;;43.63;21.58;;;0.90;99.90;;;;;;5021879;28;20060;-56
2022/12/04 03:35:00;;;;;;;43.25;21.10;;;0.90;99.90;;;;;;5018866;28;20041;-56
2022/12/04 03:37:42;;;;;;;45.83;22.75;;;0.90;99.90;;;;;;5028467;28;20045;-56
2022/12/04 03:40:35;;;;;;;42.53;22.75;;;0.90;99.90;;;;;;5023077;28;20048;-56
2022/12/04 03:43:07;;;;;;;42.10;21.45;;;0.90;99.90;;;;;;4971974;28;20548;-58
2022/12/04 03:45:44;;;;;;;41.92;20.67;;;0.90;99.90;;;;;;5018142;28;20285;-56
2022/12/04 03:48:22;;;;;;;46.20;22.38;;;0.90;99.90;;;;;;5022397;28;21057;-57
2022/12/04 03:50:57;;;;;;;49.75;23.45;;;0.90;99.90;;;;;;5025429;28;20090;-57
2022/12/04 03:53:22;;;;;;;45.75;23.77;;;0.90;99.90;;;;;;5009703;28;20037;-57
2022/12/04 03:56:09;;;;;;;43.20;22.73;;;0.90;99.90;;;;;;5019836;28;20518;-58
2022/12/04 03:58:40;;;;;;;45.22;23.33;;;0.90;99.90;;;;;;5024444;28;20064;-57
2022/12/04 04:01:10;;;;;;;48.40;24.48;;;0.90;99.90;;;;;;5022059;28;20041;-56
2022/12/04 04:03:42;;;;;;;52.03;25.00;;;0.90;99.90;;;;;;5011012;28;20333;-58
2022/12/04 04:06:13;;;;;;;48.75;23.33;;;0.90;99.90;;;;;;5019688;28;20037;-57
2022/12/04 04:08:42;;;;;;;50.15;24.13;;;0.90;99.90;;;;;;5024235;28;20039;-57
2022/12/04 04:11:47;;;;;;;46.33;25.35;;;0.90;99.90;;;;;;5018901;28;20068;-58
2022/12/04 04:25:42;;;;;;;51.20;25.67;;;0.90;99.90;;;;;;5005337;28;20123;-56
2022/12/04 04:28:34;;;;;;;50.25;26.17;;;0.90;99.90;;;;;;5019681;28;20404;-56
2022/12/04 04:31:10;;;;;;;51.20;27.40;;;0.90;99.90;;;;;;5009268;28;20400;-56
2022/12/04 04:33:48;;;;;;;54.38;26.60;;;0.90;99.90;;;;;;5008079;28;20041;-55
2022/12/04 04:36:22;;;;;;;55.88;27.98;;;0.90;99.90;;;;;;5021377;28;20044;-57
2022/12/04 04:39:02;;;;;;;49.17;26.35;;;0.90;99.90;;;;;;5019755;28;20045;-55
2022/12/04 04:41:51;;;;;;;53.25;26.38;;;0.90;99.90;;;;;;5092095;22;20044;-57
2022/12/04 04:44:51;;;;;;;54.75;28.85;;;0.90;99.90;;;;;;5094645;28;20145;-57
2022/12/04 04:47:46;;;;;;;52.17;26.98;;;0.90;99.90;;;;;;5068126;28;20090;-60
2022/12/04 04:50:14;;;;;;;53.15;27.52;;;0.80;99.90;;;;;;5050525;28;20049;-59
2022/12/04 04:52:45;;;;;;;54.85;27.48;;;0.80;99.90;;;;;;5015256;28;20124;-57
2022/12/04 04:55:11;;;;;;;53.15;28.42;;;0.80;99.90;;;;;;5070212;28;20047;-57
2022/12/04 04:57:37;;;;;;;61.22;30.33;;;0.80;99.90;;;;;;5069162;28;20054;-57
2022/12/04 05:00:06;;;;;;;60.33;29.02;;;0.80;99.90;;;;;;5069295;28;20483;-59
2022/12/04 05:02:33;;;;;;;55.22;27.45;;;0.70;99.90;;;;;;5069417;28;20462;-59
2022/12/04 05:04:58;;;;;;;52.78;27.33;;;0.80;99.90;;;;;;5047983;28;20136;-60
2022/12/04 05:07:24;;;;;;;60.55;29.17;;;0.80;99.90;;;;;;5068553;28;20127;-58
2022/12/04 05:09:50;;;;;;;56.00;28.65;;;0.70;99.90;;;;;;5051087;28;20383;-59
2022/12/04 05:12:15;;;;;;;57.85;29.27;;;0.80;99.90;;;;;;5075845;28;20044;-59
2022/12/04 05:14:41;;;;;;;58.03;28.88;;;0.80;99.90;;;;;;5052373;28;20044;-60
2022/12/04 05:17:07;;;;;;;59.08;29.02;;;0.80;99.90;;;;;;5067202;28;20043;-58
2022/12/04 05:22:26;;;;;;;56.17;28.38;;;0.80;99.90;;;;;;5067578;28;20116;-59
2022/12/04 05:24:52;;;;;;;;;;;0.80;99.90;;;;;;5050957;28;20120;-58
2022/12/04 05:27:17;;;;;;;58.42;28.58;;;0.80;99.90;;;;;;5069294;28;19974;-57
2022/12/04 05:29:43;;;;;;;57.38;30.65;;;0.80;99.90;;;;;;5051241;28;20040;-56
2022/12/04 05:32:09;;;;;;;59.17;30.58;;;0.70;99.90;;;;;;5050668;28;20502;-56
2022/12/04 05:34:35;;;;;;;55.78;28.38;;;0.70;99.90;;;;;;5067365;28;20121;-57
2022/12/04 05:37:00;;;;;;;59.65;29.73;;;0.70;99.90;;;;;;5032959;28;20045;-59
2022/12/04 05:39:26;;;;;;;58.63;30.65;;;0.70;99.90;;;;;;5068431;28;20395;-57
2022/12/04 05:41:52;;;;;;;58.25;28.67;;;0.70;99.90;;;;;;5065418;28;20032;-58
2022/12/04 05:44:17;;;;;;;57.25;30.38;;;0.70;99.90;;;;;;5050940;28;20044;-59
2022/12/04 05:46:43;;;;;;;59.25;29.55;;;0.70;99.90;;;;;;5071741;28;20032;-59
2022/12/04 05:49:09;;;;;;;61.53;31.08;;;0.70;99.90;;;;;;5067954;28;20461;-57
2022/12/04 05:51:34;;;;;;;58.92;29.40;;;0.80;99.90;;;;;;5068929;28;20403;-57
2022/12/04 05:54:00;;;;;;;61.13;30.35;;;0.70;99.90;;;;;;5067768;28;20052;-59
2022/12/04 05:56:26;;;;;;;55.85;27.50;;;0.70;99.90;;;;;;5072005;28;20036;-58
2022/12/04 05:58:51;;;;;;;55.55;28.60;;;0.80;99.90;;;;;;5070037;28;20032;-59
2022/12/04 06:01:21;;;;;;;59.85;28.67;;;0.70;99.90;;;;;;5071592;28;20032;-55
2022/12/04 06:03:46;;;;;;;59.83;28.30;;;0.70;99.90;;;;;;5068225;28;20475;-56
2022/12/04 06:06:19;;;;;;;56.17;28.10;;;0.70;99.90;;;;;;5049116;28;20025;-56
2022/12/04 06:08:45;;;;;;;60.25;30.45;;;0.70;99.90;;;;;;5074034;28;20115;-59
2022/12/04 06:11:13;;;;;;;61.10;30.67;;;0.70;99.90;;;;;;5049948;28;20554;-58
2022/12/04 06:13:43;;;;;;;52.47;27.27;;;0.70;99.90;;;;;;5072062;28;20033;-56
2022/12/04 06:16:21;;;;;;;58.53;27.98;;;0.70;99.90;;;;;;5072058;28;20530;-59
2022/12/04 06:18:55;;;;;;;58.80;28.95;;;0.70;99.90;;;;;;5053647;28;20361;-58
2022/12/04 06:21:23;;;;;;;62.92;31.13;;;0.80;99.90;;;;;;5079601;28;20036;-57
2022/12/04 06:23:50;;;;;;;62.65;30.88;;;0.80;99.90;;;;;;5053826;28;20040;-57
2022/12/04 06:26:16;;;;;;;56.65;29.58;;;0.80;99.90;;;;;;5069810;28;20044;-58
2022/12/04 06:28:42;;;;;;;58.80;31.10;;;0.80;99.90;;;;;;5067393;28;20033;-56
2022/12/04 06:31:11;;;;;;;58.67;29.08;;;0.80;99.90;;;;;;5071012;28;20391;-57
2022/12/04 06:33:37;;;;;;;60.00;30.65;;;0.80;99.90;;;;;;5071687;28;20443;-56
2022/12/04 06:36:05;;;;;;;59.83;30.00;;;0.80;99.90;;;;;;5071124;28;20392;-58
2022/12/04 06:38:32;;;;;;;57.33;29.40;;;0.80;99.90;;;;;;5070505;28;20497;-56
2022/12/04 06:40:57;;;;;;;61.65;31.77;;;0.80;99.90;;;;;;5053188;28;20177;-60
2022/12/04 06:43:23;;;;;;;60.28;29.58;;;0.80;99.90;;;;;;5057351;28;20510;-58
2022/12/04 06:46:01;;;;;;;59.72;29.52;;;0.80;99.90;;;;;;5070948;28;20085;-59
2022/12/04 06:48:28;;;;;;;57.67;28.10;;;0.80;99.90;;;;;;5064433;28;20380;-59
2022/12/04 06:51:07;;;;;;;56.65;28.60;;;0.80;99.90;;;;;;5071680;28;20052;-56
2022/12/04 06:53:34;;;;;;;60.13;31.17;;;0.90;99.90;;;;;;5065191;28;20041;-57
2022/12/04 06:56:02;;;;;;;59.78;28.52;;;0.90;99.90;;;;;;5074575;28;20498;-59
2022/12/04 06:58:29;;;;;;;58.83;29.00;;;0.90;99.90;;;;;;5054121;28;20094;-60
2022/12/04 07:00:55;;;;;;;56.78;29.90;;;0.90;99.90;;;;;;5053453;28;20045;-58
2022/12/04 07:03:22;;;;;;;53.40;27.88;;;0.90;99.90;;;;;;5068598;28;20036;-57
2022/12/04 07:05:48;;;;;;;62.17;28.20;;;1.00;99.90;;;;;;5052503;28;20043;-59
2022/12/04 07:08:14;;;;;;;59.38;30.35;;;1.00;99.90;;;;;;5052033;28;20119;-57
2022/12/04 07:10:41;;;;;;;59.15;29.25;;;1.00;99.90;;;;;;5075342;28;20117;-56
2022/12/04 07:13:07;;;;;;;55.50;30.08;;;1.00;99.90;;;;;;5051144;28;20125;-57
2022/12/04 07:15:34;;;;;;;56.42;27.90;;;1.00;99.90;;;;;;5052935;28;20626;-60
2022/12/04 07:18:00;;;;;;;58.00;29.40;;;1.00;99.90;;;;;;5052665;28;20048;-58
2022/12/04 07:20:27;;;;;;;59.83;28.80;;;1.00;99.90;;;;;;5074093;28;20035;-57
2022/12/04 07:22:52;;;;;;;57.03;29.70;;;1.00;99.90;;;;;;5081379;28;20668;-56
2022/12/04 07:25:18;;;;;;;62.55;30.88;;;1.00;99.90;;;;;;5064505;28;20108;-57
2022/12/04 07:27:44;;;;;;;53.05;26.75;;;1.10;99.90;;;;;;5069072;28;20036;-58
2022/12/04 07:30:10;;;;;;;57.85;31.67;;;1.00;99.90;;;;;;5070423;28;20044;-60
2022/12/04 07:32:36;;;;;;;59.53;30.50;;;1.10;99.90;;;;;;5065922;28;20044;-59
2022/12/04 07:35:03;;;;;;;59.30;31.83;;;1.10;99.90;;;;;;5069862;28;20043;-60
2022/12/04 07:37:29;;;;;;;56.63;29.48;;;1.10;99.90;;;;;;5070112;28;20043;-60
2022/12/04 07:39:55;;;;;;;59.10;30.10;;;1.10;99.90;;;;;;5052985;28;20033;-60
2022/12/04 07:42:20;;;;;;;58.35;30.00;;;1.10;99.90;;;;;;5071805;28;20029;-60
2022/12/04 07:44:46;;;;;;;59.88;30.00;;;1.10;99.90;;;;;;5069199;28;20044;-60
2022/12/04 07:47:12;;;;;;;57.00;29.58;;;1.10;99.90;;;;;;5062924;28;20110;-58
2022/12/04 07:49:38;;;;;;;55.03;29.63;;;1.10;99.90;;;;;;5065298;28;20025;-57
2022/12/04 07:52:05;;;;;;;62.80;31.80;;;1.10;99.90;;;;;;5070413;28;20506;-57
2022/12/04 07:54:31;;;;;;;55.42;28.77;;;1.10;99.90;;;;;;5035135;28;20044;-58
2022/12/04 07:56:56;;;;;;;61.47;30.45;;;1.10;99.90;;;;;;5069227;28;20106;-59
2022/12/04 07:59:22;;;;;;;58.05;29.58;;;1.10;99.90;;;;;;5070640;28;20550;-57
2022/12/04 08:01:48;;;;;;;63.17;30.98;;;1.10;99.90;;;;;;5069487;28;20123;-58
2022/12/04 08:04:14;;;;;;;63.05;30.00;;;1.10;99.90;;;;;;5051132;28;20111;-60
2022/12/04 08:06:40;;;;;;;60.85;32.38;;;1.10;99.90;;;;;;5066149;28;20082;-58
2022/12/04 08:09:06;;;;;;;65.55;31.30;;;1.10;99.90;;;;;;5052747;28;20044;-59
2022/12/04 08:11:33;;;;;;;61.97;31.67;;;1.10;99.90;;;;;;5052014;28;20219;-60
2022/12/04 08:14:03;;;;;;;63.50;31.23;;;1.10;99.90;;;;;;5052074;28;20040;-61
2022/12/04 08:16:31;;;;;;;70.15;32.13;;;1.10;99.90;;;;;;5052108;28;20368;-59
2022/12/04 08:18:58;;;;;;;65.93;32.38;;;1.10;99.90;;;;;;5068926;28;20040;-58
2022/12/04 08:21:26;;;;;;;60.38;31.30;;;1.10;99.90;;;;;;5058006;28;20438;-58
2022/12/04 08:23:53;;;;;;;61.83;29.50;;;1.10;99.90;;;;;;5051684;28;20044;-59
2022/12/04 08:26:21;;;;;;;65.40;30.90;;;1.10;99.90;;;;;;5069604;28;20033;-59
2022/12/04 08:28:47;;;;;;;59.83;28.50;;;1.10;99.90;;;;;;5069416;28;20444;-58
2022/12/04 08:31:22;;;;;;;62.40;28.00;;;1.20;99.90;;;;;;5069799;28;20495;-58
2022/12/04 08:33:50;;;;;;;62.13;30.45;;;1.20;99.90;;;;;;5067968;28;20119;-60
2022/12/04 08:36:18;;;;;;;62.42;30.55;;;1.10;99.90;;;;;;5068582;28;20037;-58
2022/12/04 08:38:44;;;;;;;59.13;28.83;;;1.10;99.90;;;;;;5069786;28;20271;-57
2022/12/04 08:41:12;;;;;;;59.83;29.20;;;1.10;99.90;;;;;;5052879;28;20383;-59
2022/12/04 08:43:38;;;;;;;65.53;32.00;;;1.10;99.90;;;;;;5044028;28;20036;-57
2022/12/04 08:46:09;;;;;;;65.80;31.17;;;1.10;99.90;;;;;;5067117;28;20403;-58
2022/12/04 08:48:36;;;;;;;62.45;30.83;;;1.10;99.90;;;;;;5061752;28;20044;-57
2022/12/04 08:51:06;;;;;;;61.60;30.00;;;1.10;99.90;;;;;;5057076;28;20400;-56
2022/12/04 08:53:36;;;;;;;63.47;29.50;;;1.10;99.90;;;;;;5064004;28;20036;-58
2022/12/04 08:56:03;;;;;;;59.05;29.27;;;1.20;99.90;;;;;;5066465;28;20033;-58
2022/12/04 08:58:28;;;;;;;66.05;30.77;;;1.20;99.90;;;;;;5071048;28;20477;-57
2022/12/04 09:00:54;;;;;;;60.25;29.42;;;1.20;99.90;;;;;;5069597;28;20052;-56
2022/12/04 09:03:21;;;;;;;69.10;31.95;;;1.20;99.90;;;;;;5036424;28;20079;-59
2022/12/04 09:05:47;;;;;;;60.75;29.77;;;1.20;99.90;;;;;;5074094;28;20032;-57
2022/12/04 09:08:14;;;;;;;63.45;30.75;;;1.20;99.90;;;;;;5049093;28;20051;-57
2022/12/04 09:10:41;;;;;;;61.72;30.80;;;1.20;99.90;;;;;;5049606;28;20052;-60
2022/12/04 09:13:06;;;;;;;57.95;29.38;;;1.30;99.90;;;;;;5063863;28;20048;-57
2022/12/04 09:15:32;;;;;;;62.90;29.85;;;1.30;99.90;;;;;;5051308;28;20545;-59
2022/12/04 09:17:58;;;;;;;63.10;30.40;;;1.30;99.90;;;;;;5063771;28;20055;-58
2022/12/04 09:20:24;;;;;;;63.80;30.10;;;1.40;99.90;;;;;;5037326;28;20115;-57
2022/12/04 09:22:50;;;;;;;61.30;30.65;;;1.40;99.90;;;;;;5051024;28;20043;-58
2022/12/04 09:25:16;;;;;;;58.83;27.90;;;1.40;99.90;;;;;;5050972;28;20032;-60
2022/12/04 09:27:42;;;;;;;57.45;29.92;;;1.40;99.90;;;;;;5050461;28;20101;-57
2022/12/04 09:30:10;;;;;;;55.40;29.17;;;1.50;99.90;;;;;;5063357;28;20037;-58
2022/12/04 09:32:37;;;;;;;54.17;27.15;;;1.40;99.90;;;;;;5062270;28;20407;-58
2022/12/04 09:35:04;;;;;;;60.05;30.17;;;1.50;99.90;;;;;;5064253;28;20048;-58
2022/12/04 09:37:31;;;;;;;55.67;27.42;;;1.50;99.90;;;;;;5070841;28;20048;-57
2022/12/04 09:39:57;;;;;;;62.00;30.38;;;1.50;99.90;;;;;;5070933;28;20044;-57
2022/12/04 09:42:34;;;;;;;55.40;28.58;;;1.50;99.90;;;;;;5071167;28;20368;-59
2022/12/04 09:45:23;;;;;;;58.22;29.63;;;1.50;99.90;;;;;;5070897;28;20037;-56
2022/12/04 09:47:57;;;;;;;51.90;26.50;;;1.50;99.90;;;;;;5070731;28;20124;-59
2022/12/04 09:50:30;;;;;;;56.38;30.35;;;1.60;99.90;;;;;;5072251;28;20471;-58
2022/12/04 09:53:04;;;;;;;54.72;28.83;;;1.60;99.90;;;;;;5071799;28;20040;-58
2022/12/04 09:55:35;;;;;;;53.08;28.35;;;1.60;99.90;;;;;;5069940;28;20048;-59
2022/12/04 09:58:05;;;;;;;52.80;26.38;;;1.70;99.90;;;;;;5068585;28;20040;-57
2022/12/04 10:00:35;;;;;;;52.40;28.08;;;1.70;99.90;;;;;;5070117;28;20033;-57
2022/12/04 10:03:05;;;;;;;52.80;28.67;;;1.70;99.90;;;;;;5070521;28;20082;-56
2022/12/04 10:05:48;;;;;;;55.42;27.60;;;1.70;99.90;;;;;;5058348;28;20090;-59
2022/12/04 10:08:48;;;;;;;55.38;28.85;;;1.70;99.90;;;;;;5066107;28;20317;-58
2022/12/04 10:11:28;;;;;;;48.45;25.95;;;1.80;99.90;;;;;;5067594;28;20089;-60
2022/12/04 10:14:09;;;;;;;47.55;25.65;;;1.80;99.90;;;;;;5071870;28;20086;-57
2022/12/04 10:17:02;;;;;;;50.65;25.60;;;1.80;99.90;;;;;;5060548;28;20499;-60
2022/12/04 10:19:39;;;;;;;50.05;25.95;;;1.90;99.90;;;;;;5053922;28;20078;-58
2022/12/04 10:22:24;;;;;;;46.65;24.52;;;1.90;99.90;;;;;;5074332;28;20080;-59
2022/12/04 10:25:17;;;;;;;53.15;25.95;;;1.90;99.90;;;;;;5067765;28;20512;-59
2022/12/04 10:27:51;;;;;;;44.45;25.15;;;2.00;99.90;;;;;;5061430;28;20051;-57
2022/12/04 10:30:20;;;;;;;;;;;2.00;99.90;;;;;;5048502;28;20045;-59
2022/12/04 10:32:48;;;;;;;43.30;23.73;;;2.00;99.90;;;;;;5065144;28;19916;-60
2022/12/04 10:35:21;;;;;;;46.60;23.73;;;2.00;99.90;;;;;;5066674;28;20645;-60
2022/12/04 10:37:52;;;;;;;48.03;23.98;;;2.10;99.90;;;;;;5051447;28;20045;-60
2022/12/04 10:40:34;;;;;;;41.38;23.58;;;2.10;99.90;;;;;;5061522;28;20040;-59
2022/12/04 10:43:10;;;;;;;45.55;23.90;;;2.10;99.90;;;;;;5081863;22;20109;-58
2022/12/04 10:45:36;;;;;;;44.53;22.85;;;2.20;99.90;;;;;;5043324;28;20040;-60
2022/12/04 10:48:03;;;;;;;44.50;24.13;;;2.20;99.90;;;;;;5047208;28;20060;-57
2022/12/04 10:50:29;;;;;;;45.90;23.35;;;2.30;99.90;;;;;;5020786;28;20055;-59
2022/12/04 10:52:56;;;;;;;40.83;22.10;;;2.30;99.90;;;;;;5057469;28;20515;-58
2022/12/04 10:55:33;;;;;;;36.03;20.92;;;2.30;99.90;;;;;;5035184;28;20119;-58
2022/12/04 10:57:59;;;;;;;39.22;22.35;;;2.30;99.90;;;;;;5037579;28;20460;-60
2022/12/04 11:00:29;;;;;;;35.45;20.65;;;2.40;99.90;;;;;;5057587;28;20049;-58
2022/12/04 11:02:58;;;;;;;34.70;20.27;;;2.50;99.90;;;;;;5052760;28;20083;-59
2022/12/04 11:05:56;;;;;;;33.30;19.02;;;2.50;99.90;;;;;;5050664;28;20874;-58
2022/12/04 11:08:26;;;;;;;35.72;20.50;;;2.50;99.90;;;;;;4989640;28;20211;-58
2022/12/04 11:11:05;;;;;;;32.20;18.25;;;2.60;99.90;;;;;;5037876;28;20032;-58
2022/12/04 11:13:30;;;;;;;27.67;17.27;;;2.60;99.90;;;;;;5034248;28;20048;-59
2022/12/04 11:15:58;;;;;;;32.10;18.38;;;2.70;99.90;;;;;;5034539;28;20033;-59
2022/12/04 11:18:29;;;;;;;33.13;19.08;;;2.70;99.90;;;;;;5057267;28;20052;-57
2022/12/04 11:21:00;;;;;;;32.63;18.27;;;2.70;99.90;;;;;;5066006;28;20040;-59
2022/12/04 11:23:30;;;;;;;37.63;19.00;;;2.80;99.90;;;;;;5060754;28;20067;-60
2022/12/04 11:25:58;;;;;;;33.42;19.08;;;2.80;99.90;;;;;;5051308;28;20098;-59
2022/12/04 11:28:29;;;;;;;38.03;19.50;;;2.80;99.90;;;;;;5058332;28;20041;-59
2022/12/04 11:30:58;;;;;;;33.53;19.08;;;2.80;99.90;;;;;;5055449;28;20063;-59
2022/12/04 11:33:46;;;;;;;33.30;18.35;;;2.80;99.90;;;;;;5039196;28;20135;-58
2022/12/04 11:36:23;;;;;;;32.05;19.15;;;2.80;99.90;;;;;;5048376;28;20045;-59
2022/12/04 11:38:50;;;;;;;32.03;17.73;;;2.90;99.90;;;;;;5021882;28;20099;-59
2022/12/04 11:41:30;;;;;;;33.53;18.42;;;2.80;99.90;;;;;;5060476;28;20553;-59
2022/12/04 11:43:57;;;;;;;31.25;18.02;;;2.80;99.90;;;;;;5059803;28;20111;-59
2022/12/04 11:46:25;;;;;;;28.17;16.60;;;2.80;99.90;;;;;;5030806;28;20139;-58
2022/12/04 11:48:52;;;;;;;27.50;15.50;;;2.80;99.90;;;;;;5055784;28;20615;-58
2022/12/04 11:51:39;;;;;;;27.23;15.68;;;2.90;99.90;;;;;;5056850;28;20036;-58
2022/12/04 11:54:19;;;;;;;24.95;14.32;;;2.90;99.90;;;;;;5024783;28;20079;-58
2022/12/04 11:56:51;;;;;;;21.98;13.50;;;2.90;99.90;;;;;;5060165;28;20441;-59
2022/12/04 11:59:23;;;;;;;21.20;13.75;;;2.90;99.90;;;;;;5039908;28;20137;-58
2022/12/04 12:02:26;;;;;;;20.85;12.55;;;2.90;99.90;;;;;;5057670;28;20036;-60
2022/12/04 12:05:07;;;;;;;21.02;12.82;;;2.90;99.90;;;;;;5055569;28;20040;-59
2022/12/04 12:08:08;;;;;;;19.90;12.38;;;2.90;99.90;;;;;;5036308;28;20046;-59
2022/12/04 12:11:06;;;;;;;23.88;12.63;;;2.90;99.90;;;;;;5034853;28;20060;-60
2022/12/04 12:13:57;;;;;;;20.17;12.85;;;2.90;99.90;;;;;;5016155;28;20534;-57
2022/12/04 12:16:51;;;;;;;22.73;12.32;;;2.80;99.90;;;;;;5043765;28;20550;-59
2022/12/04 12:19:38;;;;;;;20.33;11.63;;;2.80;99.90;;;;;;5044813;28;20380;-60
2022/12/04 12:22:27;;;;;;;20.30;11.57;;;2.60;99.90;;;;;;5060651;28;20105;-58
2022/12/04 12:25:18;;;;;;;22.67;13.98;;;2.80;99.90;;;;;;5052559;28;20040;-58
2022/12/04 12:27:59;;;;;;;19.95;11.90;;;2.80;99.90;;;;;;5054967;28;20036;-59
2022/12/04 12:30:28;;;;;;;19.45;12.15;;;2.70;99.90;;;;;;5038219;28;20054;-59
2022/12/04 12:33:13;;;;;;;21.73;13.02;;;2.70;99.90;;;;;;5052074;28;20032;-58
2022/12/04 12:36:07;;;;;;;21.83;13.48;;;2.70;99.90;;;;;;5049537;28;20040;-59
2022/12/04 12:38:36;;;;;;;20.25;12.85;;;2.70;99.90;;;;;;5038135;28;20089;-56
2022/12/04 12:41:15;;;;;;;24.10;14.00;;;2.70;99.90;;;;;;5038180;28;20052;-60
2022/12/04 12:43:46;;;;;;;22.70;13.70;;;2.70;99.90;;;;;;5055079;28;20070;-59
2022/12/04 12:46:21;;;;;;;23.88;14.43;;;2.70;99.90;;;;;;5056360;28;20230;-58
2022/12/04 12:48:56;;;;;;;22.75;13.80;;;2.80;99.90;;;;;;5055670;28;20044;-58
2022/12/04 12:51:45;;;;;;;18.35;12.18;;;2.80;99.90;;;;;;5045938;28;20044;-59
2022/12/04 12:54:21;;;;;;;21.88;13.23;;;2.80;99.90;;;;;;5044647;28;20430;-59
2022/12/04 12:56:52;;;;;;;23.17;14.05;;;2.80;99.90;;;;;;5049829;28;20048;-60
2022/12/04 12:59:25;;;;;;;24.10;14.73;;;2.90;99.90;;;;;;5036708;28;20045;-60
2022/12/04 13:02:01;;;;;;;26.00;14.32;;;2.90;99.90;;;;;;5060262;28;20033;-59
2022/12/04 13:04:39;;;;;;;23.80;14.45;;;2.90;99.90;;;;;;5058823;28;20036;-60
2022/12/04 13:07:11;;;;;;;21.70;12.77;;;2.90;99.90;;;;;;5060584;28;20511;-60
2022/12/04 13:09:43;;;;;;;20.80;12.57;;;2.90;99.90;;;;;;5053356;28;20733;-60
2022/12/04 13:12:13;;;;;;;24.13;14.70;;;3.00;99.90;;;;;;5050522;28;20105;-60
2022/12/04 13:14:39;;;;;;;24.77;14.07;;;3.00;99.90;;;;;;5028743;28;20115;-59